sensor_id;sensor_type;location;lat;lon;timestamp;P1;durP1;ratioP1;P2;durP2;ratioP2
10957;SDS011;5531;42.570;23.676;2023-08-12T00:00:42;5.05;;;4.40;;
10957;SDS011;5531;42.570;23.676;2023-08-12T00:03:10;5.93;;;4.22;;
10957;SDS011;5531;42.570;23.676;2023-08-12T00:05:39;4.93;;;4.30;;
10957;SDS011;5531;42.570;23.676;2023-08-12T00:08:08;4.55;;;4.15;;
10957;SDS011;5531;42.570;23.676;2023-08-12T00:10:37;4.32;;;3.88;;
10957;SDS011;5531;42.570;23.676;2023-08-12T00:13:05;4.50;;;4.10;;
10957;SDS011;5531;42.570;23.676;2023-08-12T00:15:37;5.15;;;4.30;;
10957;SDS011;5531;42.570;23.676;2023-08-12T00:18:06;5.78;;;4.22;;
10957;SDS011;5531;42.570;23.676;2023-08-12T00:20:34;4.78;;;4.38;;
10957;SDS011;5531;42.570;23.676;2023-08-12T00:23:03;5.15;;;4.35;;
10957;SDS011;5531;42.570;23.676;2023-08-12T00:25:32;5.05;;;4.07;;
10957;SDS011;5531;42.570;23.676;2023-08-12T00:28:00;7.20;;;4.38;;
10957;SDS011;5531;42.570;23.676;2023-08-12T00:30:29;4.43;;;4.03;;
10957;SDS011;5531;42.570;23.676;2023-08-12T00:33:00;4.88;;;4.38;;
10957;SDS011;5531;42.570;23.676;2023-08-12T00:35:28;4.63;;;4.22;;
10957;SDS011;5531;42.570;23.676;2023-08-12T00:37:57;4.47;;;4.07;;
10957;SDS011;5531;42.570;23.676;2023-08-12T00:40:26;5.72;;;4.00;;
10957;SDS011;5531;42.570;23.676;2023-08-12T00:42:54;4.80;;;4.40;;
10957;SDS011;5531;42.570;23.676;2023-08-12T00:45:23;4.15;;;3.75;;
10957;SDS011;5531;42.570;23.676;2023-08-12T00:47:51;4.45;;;4.05;;
10957;SDS011;5531;42.570;23.676;2023-08-12T00:50:22;4.32;;;3.92;;
10957;SDS011;5531;42.570;23.676;2023-08-12T00:52:51;5.07;;;3.92;;
10957;SDS011;5531;42.570;23.676;2023-08-12T00:55:20;4.53;;;4.20;;
10957;SDS011;5531;42.570;23.676;2023-08-12T00:57:48;4.43;;;3.95;;
10957;SDS011;5531;42.570;23.676;2023-08-12T01:00:17;4.45;;;4.05;;
10957;SDS011;5531;42.570;23.676;2023-08-12T01:02:47;4.38;;;3.97;;
10957;SDS011;5531;42.570;23.676;2023-08-12T01:05:16;5.82;;;4.10;;
10957;SDS011;5531;42.570;23.676;2023-08-12T01:07:48;4.53;;;4.22;;
10957;SDS011;5531;42.570;23.676;2023-08-12T01:10:18;4.88;;;4.40;;
10957;SDS011;5531;42.570;23.676;2023-08-12T01:12:50;5.70;;;4.53;;
10957;SDS011;5531;42.570;23.676;2023-08-12T01:15:21;5.25;;;4.75;;
10957;SDS011;5531;42.570;23.676;2023-08-12T01:17:52;5.45;;;5.00;;
10957;SDS011;5531;42.570;23.676;2023-08-12T01:20:21;5.53;;;5.03;;
10957;SDS011;5531;42.570;23.676;2023-08-12T01:22:56;5.50;;;4.97;;
10957;SDS011;5531;42.570;23.676;2023-08-12T01:25:27;5.32;;;4.45;;
10957;SDS011;5531;42.570;23.676;2023-08-12T01:27:55;5.22;;;4.72;;
10957;SDS011;5531;42.570;23.676;2023-08-12T01:30:24;5.28;;;4.57;;
10957;SDS011;5531;42.570;23.676;2023-08-12T01:32:54;4.88;;;4.38;;
10957;SDS011;5531;42.570;23.676;2023-08-12T01:35:26;5.10;;;4.30;;
10957;SDS011;5531;42.570;23.676;2023-08-12T01:37:55;5.50;;;5.00;;
10957;SDS011;5531;42.570;23.676;2023-08-12T01:40:28;5.22;;;4.72;;
10957;SDS011;5531;42.570;23.676;2023-08-12T01:42:57;4.95;;;4.55;;
10957;SDS011;5531;42.570;23.676;2023-08-12T01:45:27;6.15;;;5.00;;
10957;SDS011;5531;42.570;23.676;2023-08-12T01:47:55;5.63;;;5.13;;
10957;SDS011;5531;42.570;23.676;2023-08-12T01:50:24;6.35;;;5.28;;
10957;SDS011;5531;42.570;23.676;2023-08-12T01:52:52;5.65;;;5.15;;
10957;SDS011;5531;42.570;23.676;2023-08-12T01:55:21;5.82;;;4.72;;
10957;SDS011;5531;42.570;23.676;2023-08-12T01:57:52;5.07;;;4.68;;
10957;SDS011;5531;42.570;23.676;2023-08-12T02:00:20;5.35;;;4.90;;
10957;SDS011;5531;42.570;23.676;2023-08-12T02:02:49;5.22;;;4.72;;
10957;SDS011;5531;42.570;23.676;2023-08-12T02:05:18;5.28;;;4.80;;
10957;SDS011;5531;42.570;23.676;2023-08-12T02:07:46;5.53;;;5.03;;
10957;SDS011;5531;42.570;23.676;2023-08-12T02:10:15;5.15;;;4.70;;
10957;SDS011;5531;42.570;23.676;2023-08-12T02:12:43;5.20;;;4.80;;
10957;SDS011;5531;42.570;23.676;2023-08-12T02:15:14;5.35;;;4.85;;
10957;SDS011;5531;42.570;23.676;2023-08-12T02:17:43;5.47;;;4.88;;
10957;SDS011;5531;42.570;23.676;2023-08-12T02:20:11;5.13;;;4.70;;
10957;SDS011;5531;42.570;23.676;2023-08-12T02:22:40;5.22;;;4.72;;
10957;SDS011;5531;42.570;23.676;2023-08-12T02:25:09;5.43;;;4.68;;
10957;SDS011;5531;42.570;23.676;2023-08-12T02:27:37;5.07;;;4.68;;
10957;SDS011;5531;42.570;23.676;2023-08-12T02:30:07;5.90;;;4.47;;
10957;SDS011;5531;42.570;23.676;2023-08-12T02:32:38;5.20;;;4.38;;
10957;SDS011;5531;42.570;23.676;2023-08-12T02:35:08;5.35;;;4.55;;
10957;SDS011;5531;42.570;23.676;2023-08-12T02:37:37;4.93;;;4.50;;
10957;SDS011;5531;42.570;23.676;2023-08-12T02:40:06;4.78;;;3.95;;
10957;SDS011;5531;42.570;23.676;2023-08-12T02:42:36;4.93;;;4.10;;
10957;SDS011;5531;42.570;23.676;2023-08-12T02:45:05;4.07;;;3.70;;
10957;SDS011;5531;42.570;23.676;2023-08-12T02:47:33;4.38;;;3.97;;
10957;SDS011;5531;42.570;23.676;2023-08-12T02:50:05;4.32;;;3.92;;
10957;SDS011;5531;42.570;23.676;2023-08-12T02:52:34;4.47;;;3.80;;
10957;SDS011;5531;42.570;23.676;2023-08-12T02:55:03;4.20;;;3.78;;
10957;SDS011;5531;42.570;23.676;2023-08-12T02:57:32;4.30;;;3.90;;
10957;SDS011;5531;42.570;23.676;2023-08-12T03:00:00;4.53;;;4.10;;
10957;SDS011;5531;42.570;23.676;2023-08-12T03:02:29;6.03;;;4.30;;
10957;SDS011;5531;42.570;23.676;2023-08-12T03:04:58;4.55;;;4.07;;
10957;SDS011;5531;42.570;23.676;2023-08-12T03:07:29;4.60;;;4.20;;
10957;SDS011;5531;42.570;23.676;2023-08-12T03:09:58;4.43;;;4.03;;
10957;SDS011;5531;42.570;23.676;2023-08-12T03:12:26;4.70;;;4.30;;
10957;SDS011;5531;42.570;23.676;2023-08-12T03:14:55;4.88;;;4.47;;
10957;SDS011;5531;42.570;23.676;2023-08-12T03:17:24;4.45;;;4.05;;
10957;SDS011;5531;42.570;23.676;2023-08-12T03:19:52;4.47;;;3.88;;
10957;SDS011;5531;42.570;23.676;2023-08-12T03:22:21;4.43;;;3.95;;
10957;SDS011;5531;42.570;23.676;2023-08-12T03:24:52;4.53;;;4.13;;
10957;SDS011;5531;42.570;23.676;2023-08-12T03:27:21;5.10;;;4.07;;
10957;SDS011;5531;42.570;23.676;2023-08-12T03:29:49;4.78;;;4.18;;
10957;SDS011;5531;42.570;23.676;2023-08-12T03:32:18;5.55;;;4.40;;
10957;SDS011;5531;42.570;23.676;2023-08-12T03:34:46;4.15;;;3.60;;
10957;SDS011;5531;42.570;23.676;2023-08-12T03:37:15;4.38;;;3.38;;
10957;SDS011;5531;42.570;23.676;2023-08-12T03:39:43;5.28;;;4.03;;
10957;SDS011;5531;42.570;23.676;2023-08-12T03:42:15;3.80;;;3.50;;
10957;SDS011;5531;42.570;23.676;2023-08-12T03:44:44;5.65;;;4.05;;
10957;SDS011;5531;42.570;23.676;2023-08-12T03:47:12;5.28;;;4.20;;
10957;SDS011;5531;42.570;23.676;2023-08-12T03:49:41;4.53;;;3.97;;
10957;SDS011;5531;42.570;23.676;2023-08-12T03:52:09;4.20;;;3.80;;
10957;SDS011;5531;42.570;23.676;2023-08-12T03:54:38;4.88;;;4.20;;
10957;SDS011;5531;42.570;23.676;2023-08-12T03:57:06;5.72;;;3.72;;
10957;SDS011;5531;42.570;23.676;2023-08-12T03:59:38;4.10;;;3.70;;
10957;SDS011;5531;42.570;23.676;2023-08-12T04:02:06;4.50;;;3.65;;
10957;SDS011;5531;42.570;23.676;2023-08-12T04:04:35;3.97;;;3.58;;
10957;SDS011;5531;42.570;23.676;2023-08-12T04:07:03;4.00;;;3.70;;
10957;SDS011;5531;42.570;23.676;2023-08-12T04:09:32;4.35;;;3.67;;
10957;SDS011;5531;42.570;23.676;2023-08-12T04:12:01;3.92;;;3.63;;
10957;SDS011;5531;42.570;23.676;2023-08-12T04:14:30;4.00;;;3.70;;
10957;SDS011;5531;42.570;23.676;2023-08-12T04:17:01;5.35;;;3.80;;
10957;SDS011;5531;42.570;23.676;2023-08-12T04:19:30;4.60;;;4.03;;
10957;SDS011;5531;42.570;23.676;2023-08-12T04:21:58;6.85;;;3.85;;
10957;SDS011;5531;42.570;23.676;2023-08-12T04:24:27;5.03;;;4.00;;
10957;SDS011;5531;42.570;23.676;2023-08-12T04:26:57;5.15;;;3.80;;
10957;SDS011;5531;42.570;23.676;2023-08-12T04:29:25;4.60;;;3.80;;
10957;SDS011;5531;42.570;23.676;2023-08-12T04:31:54;4.13;;;3.80;;
10957;SDS011;5531;42.570;23.676;2023-08-12T04:34:25;4.10;;;3.70;;
10957;SDS011;5531;42.570;23.676;2023-08-12T04:36:53;4.70;;;4.20;;
10957;SDS011;5531;42.570;23.676;2023-08-12T04:39:22;4.50;;;4.03;;
10957;SDS011;5531;42.570;23.676;2023-08-12T04:41:51;5.78;;;4.03;;
10957;SDS011;5531;42.570;23.676;2023-08-12T04:44:19;4.25;;;3.90;;
10957;SDS011;5531;42.570;23.676;2023-08-12T04:46:48;3.88;;;3.47;;
10957;SDS011;5531;42.570;23.676;2023-08-12T04:49:16;4.80;;;3.92;;
10957;SDS011;5531;42.570;23.676;2023-08-12T04:51:48;4.22;;;3.83;;
10957;SDS011;5531;42.570;23.676;2023-08-12T04:54:19;4.30;;;4.00;;
10957;SDS011;5531;42.570;23.676;2023-08-12T04:56:48;3.80;;;3.50;;
10957;SDS011;5531;42.570;23.676;2023-08-12T04:59:16;4.18;;;3.63;;
10957;SDS011;5531;42.570;23.676;2023-08-12T05:01:45;4.30;;;3.90;;
10957;SDS011;5531;42.570;23.676;2023-08-12T05:04:13;5.00;;;4.10;;
10957;SDS011;5531;42.570;23.676;2023-08-12T05:06:42;4.47;;;4.07;;
10957;SDS011;5531;42.570;23.676;2023-08-12T05:09:13;4.38;;;3.97;;
10957;SDS011;5531;42.570;23.676;2023-08-12T05:11:42;4.28;;;3.90;;
10957;SDS011;5531;42.570;23.676;2023-08-12T05:14:10;4.10;;;3.60;;
10957;SDS011;5531;42.570;23.676;2023-08-12T05:16:39;5.47;;;3.72;;
10957;SDS011;5531;42.570;23.676;2023-08-12T05:19:07;4.15;;;3.78;;
10957;SDS011;5531;42.570;23.676;2023-08-12T05:21:36;3.90;;;3.45;;
10957;SDS011;5531;42.570;23.676;2023-08-12T05:24:05;4.00;;;3.60;;
10957;SDS011;5531;42.570;23.676;2023-08-12T05:26:36;4.00;;;3.60;;
10957;SDS011;5531;42.570;23.676;2023-08-12T05:29:05;3.97;;;3.55;;
10957;SDS011;5531;42.570;23.676;2023-08-12T05:31:33;4.53;;;3.40;;
10957;SDS011;5531;42.570;23.676;2023-08-12T05:34:02;3.60;;;3.13;;
10957;SDS011;5531;42.570;23.676;2023-08-12T05:36:30;4.30;;;3.72;;
10957;SDS011;5531;42.570;23.676;2023-08-12T05:38:59;3.70;;;3.40;;
10957;SDS011;5531;42.570;23.676;2023-08-12T05:41:28;4.20;;;3.72;;
10957;SDS011;5531;42.570;23.676;2023-08-12T05:43:59;4.53;;;3.38;;
10957;SDS011;5531;42.570;23.676;2023-08-12T05:46:28;4.43;;;3.05;;
10957;SDS011;5531;42.570;23.676;2023-08-12T05:48:56;4.30;;;3.42;;
10957;SDS011;5531;42.570;23.676;2023-08-12T05:51:25;3.58;;;3.28;;
10957;SDS011;5531;42.570;23.676;2023-08-12T05:53:53;3.88;;;3.50;;
10957;SDS011;5531;42.570;23.676;2023-08-12T05:56:22;3.50;;;3.20;;
10957;SDS011;5531;42.570;23.676;2023-08-12T05:58:51;3.90;;;3.50;;
10957;SDS011;5531;42.570;23.676;2023-08-12T06:01:22;4.25;;;3.58;;
10957;SDS011;5531;42.570;23.676;2023-08-12T06:03:50;4.05;;;3.40;;
10957;SDS011;5531;42.570;23.676;2023-08-12T06:06:19;5.07;;;3.28;;
10957;SDS011;5531;42.570;23.676;2023-08-12T06:08:48;4.32;;;3.30;;
10957;SDS011;5531;42.570;23.676;2023-08-12T06:11:16;3.72;;;3.20;;
10957;SDS011;5531;42.570;23.676;2023-08-12T06:13:45;3.65;;;3.35;;
10957;SDS011;5531;42.570;23.676;2023-08-12T06:16:14;5.00;;;3.58;;
10957;SDS011;5531;42.570;23.676;2023-08-12T06:18:45;3.92;;;3.30;;
10957;SDS011;5531;42.570;23.676;2023-08-12T06:21:13;4.20;;;3.40;;
10957;SDS011;5531;42.570;23.676;2023-08-12T06:23:42;4.38;;;3.58;;
10957;SDS011;5531;42.570;23.676;2023-08-12T06:26:11;4.80;;;3.33;;
10957;SDS011;5531;42.570;23.676;2023-08-12T06:28:39;4.10;;;3.38;;
10957;SDS011;5531;42.570;23.676;2023-08-12T06:31:08;4.10;;;3.28;;
10957;SDS011;5531;42.570;23.676;2023-08-12T06:33:36;3.53;;;3.22;;
10957;SDS011;5531;42.570;23.676;2023-08-12T06:36:07;3.60;;;3.13;;
10957;SDS011;5531;42.570;23.676;2023-08-12T06:38:36;2.92;;;2.72;;
10957;SDS011;5531;42.570;23.676;2023-08-12T06:41:05;3.83;;;3.50;;
10957;SDS011;5531;42.570;23.676;2023-08-12T06:43:33;3.55;;;3.25;;
10957;SDS011;5531;42.570;23.676;2023-08-12T06:46:02;3.33;;;3.03;;
10957;SDS011;5531;42.570;23.676;2023-08-12T06:48:30;4.70;;;3.15;;
10957;SDS011;5531;42.570;23.676;2023-08-12T06:50:59;4.57;;;3.20;;
10957;SDS011;5531;42.570;23.676;2023-08-12T06:53:35;3.38;;;3.08;;
10957;SDS011;5531;42.570;23.676;2023-08-12T06:56:03;4.65;;;3.40;;
10957;SDS011;5531;42.570;23.676;2023-08-12T06:58:32;3.53;;;3.20;;
10957;SDS011;5531;42.570;23.676;2023-08-12T07:01:00;4.25;;;3.30;;
10957;SDS011;5531;42.570;23.676;2023-08-12T07:03:29;3.60;;;3.30;;
10957;SDS011;5531;42.570;23.676;2023-08-12T07:05:58;3.78;;;3.38;;
10957;SDS011;5531;42.570;23.676;2023-08-12T07:08:26;3.92;;;3.38;;
10957;SDS011;5531;42.570;23.676;2023-08-12T07:10:58;4.70;;;3.30;;
10957;SDS011;5531;42.570;23.676;2023-08-12T07:13:26;3.60;;;3.30;;
10957;SDS011;5531;42.570;23.676;2023-08-12T07:15:55;3.67;;;3.38;;
10957;SDS011;5531;42.570;23.676;2023-08-12T07:18:23;3.97;;;3.17;;
10957;SDS011;5531;42.570;23.676;2023-08-12T07:20:52;3.42;;;3.20;;
10957;SDS011;5531;42.570;23.676;2023-08-12T07:23:20;4.18;;;3.08;;
10957;SDS011;5531;42.570;23.676;2023-08-12T07:25:49;8.02;;;3.53;;
10957;SDS011;5531;42.570;23.676;2023-08-12T07:28:20;4.32;;;3.40;;
10957;SDS011;5531;42.570;23.676;2023-08-12T07:30:49;4.25;;;3.20;;
10957;SDS011;5531;42.570;23.676;2023-08-12T07:33:18;4.85;;;3.10;;
10957;SDS011;5531;42.570;23.676;2023-08-12T07:35:46;5.57;;;3.05;;
10957;SDS011;5531;42.570;23.676;2023-08-12T07:38:15;3.60;;;3.30;;
10957;SDS011;5531;42.570;23.676;2023-08-12T07:40:43;3.03;;;2.80;;
10957;SDS011;5531;42.570;23.676;2023-08-12T07:43:14;3.90;;;3.15;;
10957;SDS011;5531;42.570;23.676;2023-08-12T07:45:45;2.92;;;2.67;;
10957;SDS011;5531;42.570;23.676;2023-08-12T07:48:18;3.75;;;2.90;;
10957;SDS011;5531;42.570;23.676;2023-08-12T07:50:47;4.00;;;3.05;;
10957;SDS011;5531;42.570;23.676;2023-08-12T07:53:16;3.35;;;3.05;;
10957;SDS011;5531;42.570;23.676;2023-08-12T07:55:44;2.95;;;2.65;;
10957;SDS011;5531;42.570;23.676;2023-08-12T07:58:13;3.75;;;3.00;;
10957;SDS011;5531;42.570;23.676;2023-08-12T08:00:41;3.25;;;2.88;;
10957;SDS011;5531;42.570;23.676;2023-08-12T08:03:13;4.03;;;3.17;;
10957;SDS011;5531;42.570;23.676;2023-08-12T08:05:41;6.35;;;5.72;;
10957;SDS011;5531;42.570;23.676;2023-08-12T08:08:11;7.07;;;6.18;;
10957;SDS011;5531;42.570;23.676;2023-08-12T08:10:39;4.03;;;3.30;;
10957;SDS011;5531;42.570;23.676;2023-08-12T08:13:08;4.13;;;3.00;;
10957;SDS011;5531;42.570;23.676;2023-08-12T08:15:36;3.33;;;2.70;;
10957;SDS011;5531;42.570;23.676;2023-08-12T08:18:05;5.40;;;3.20;;
10957;SDS011;5531;42.570;23.676;2023-08-12T08:20:36;3.03;;;2.83;;
10957;SDS011;5531;42.570;23.676;2023-08-12T08:23:05;4.60;;;3.00;;
10957;SDS011;5531;42.570;23.676;2023-08-12T08:25:34;3.22;;;2.92;;
10957;SDS011;5531;42.570;23.676;2023-08-12T08:28:02;4.03;;;2.60;;
10957;SDS011;5531;42.570;23.676;2023-08-12T08:30:31;4.20;;;2.90;;
10957;SDS011;5531;42.570;23.676;2023-08-12T08:33:00;2.70;;;2.42;;
10957;SDS011;5531;42.570;23.676;2023-08-12T08:35:28;5.38;;;2.97;;
10957;SDS011;5531;42.570;23.676;2023-08-12T08:38:00;3.38;;;2.70;;
10957;SDS011;5531;42.570;23.676;2023-08-12T08:40:28;3.13;;;2.70;;
10957;SDS011;5531;42.570;23.676;2023-08-12T08:42:58;2.97;;;2.78;;
10957;SDS011;5531;42.570;23.676;2023-08-12T08:45:27;3.47;;;2.72;;
10957;SDS011;5531;42.570;23.676;2023-08-12T08:47:56;3.35;;;3.00;;
10957;SDS011;5531;42.570;23.676;2023-08-12T08:50:25;3.35;;;3.00;;
10957;SDS011;5531;42.570;23.676;2023-08-12T08:52:54;4.00;;;2.83;;
10957;SDS011;5531;42.570;23.676;2023-08-12T08:55:26;4.47;;;2.80;;
10957;SDS011;5531;42.570;23.676;2023-08-12T08:57:55;4.53;;;2.85;;
10957;SDS011;5531;42.570;23.676;2023-08-12T09:00:24;3.15;;;2.63;;
10957;SDS011;5531;42.570;23.676;2023-08-12T09:02:53;4.03;;;2.80;;
10957;SDS011;5531;42.570;23.676;2023-08-12T09:05:23;3.05;;;2.70;;
10957;SDS011;5531;42.570;23.676;2023-08-12T09:07:52;2.95;;;2.50;;
10957;SDS011;5531;42.570;23.676;2023-08-12T09:10:21;3.05;;;2.63;;
10957;SDS011;5531;42.570;23.676;2023-08-12T09:12:54;2.97;;;2.47;;
10957;SDS011;5531;42.570;23.676;2023-08-12T09:15:24;2.80;;;2.60;;
10957;SDS011;5531;42.570;23.676;2023-08-12T09:17:52;3.03;;;2.60;;
10957;SDS011;5531;42.570;23.676;2023-08-12T09:20:21;2.78;;;2.50;;
10957;SDS011;5531;42.570;23.676;2023-08-12T09:22:55;3.13;;;2.70;;
10957;SDS011;5531;42.570;23.676;2023-08-12T09:25:24;3.88;;;2.72;;
10957;SDS011;5531;42.570;23.676;2023-08-12T09:27:58;3.15;;;2.83;;
10957;SDS011;5531;42.570;23.676;2023-08-12T09:30:28;5.47;;;2.90;;
10957;SDS011;5531;42.570;23.676;2023-08-12T09:33:00;5.07;;;2.45;;
10957;SDS011;5531;42.570;23.676;2023-08-12T09:35:33;2.85;;;2.58;;
10957;SDS011;5531;42.570;23.676;2023-08-12T09:38:02;3.10;;;2.90;;
10957;SDS011;5531;42.570;23.676;2023-08-12T09:40:31;2.67;;;2.47;;
10957;SDS011;5531;42.570;23.676;2023-08-12T09:43:03;2.78;;;2.50;;
10957;SDS011;5531;42.570;23.676;2023-08-12T09:45:32;3.00;;;2.60;;
10957;SDS011;5531;42.570;23.676;2023-08-12T09:48:00;3.72;;;2.60;;
10957;SDS011;5531;42.570;23.676;2023-08-12T09:50:29;4.60;;;2.30;;
10957;SDS011;5531;42.570;23.676;2023-08-12T09:52:58;2.63;;;2.30;;
10957;SDS011;5531;42.570;23.676;2023-08-12T09:55:28;4.53;;;2.80;;
10957;SDS011;5531;42.570;23.676;2023-08-12T09:57:57;5.22;;;2.42;;
10957;SDS011;5531;42.570;23.676;2023-08-12T10:00:30;3.38;;;2.30;;
10957;SDS011;5531;42.570;23.676;2023-08-12T10:02:59;2.60;;;2.40;;
10957;SDS011;5531;42.570;23.676;2023-08-12T10:05:31;2.42;;;2.17;;
10957;SDS011;5531;42.570;23.676;2023-08-12T10:07:59;2.92;;;2.28;;
10957;SDS011;5531;42.570;23.676;2023-08-12T10:10:29;2.42;;;2.22;;
10957;SDS011;5531;42.570;23.676;2023-08-12T10:12:58;2.53;;;2.33;;
10957;SDS011;5531;42.570;23.676;2023-08-12T10:15:29;2.55;;;2.30;;
10957;SDS011;5531;42.570;23.676;2023-08-12T10:17:58;2.53;;;2.17;;
10957;SDS011;5531;42.570;23.676;2023-08-12T10:20:27;3.67;;;2.20;;
10957;SDS011;5531;42.570;23.676;2023-08-12T10:22:58;3.22;;;2.40;;
10957;SDS011;5531;42.570;23.676;2023-08-12T10:25:30;2.38;;;2.17;;
10957;SDS011;5531;42.570;23.676;2023-08-12T10:27:59;2.75;;;2.22;;
10957;SDS011;5531;42.570;23.676;2023-08-12T10:30:32;2.60;;;2.03;;
10957;SDS011;5531;42.570;23.676;2023-08-12T10:33:02;2.50;;;1.90;;
10957;SDS011;5531;42.570;23.676;2023-08-12T10:35:40;2.42;;;2.10;;
10957;SDS011;5531;42.570;23.676;2023-08-12T10:38:10;2.42;;;2.22;;
10957;SDS011;5531;42.570;23.676;2023-08-12T10:40:39;2.78;;;2.13;;
10957;SDS011;5531;42.570;23.676;2023-08-12T10:43:08;3.10;;;2.03;;
10957;SDS011;5531;42.570;23.676;2023-08-12T10:45:46;2.20;;;2.00;;
10957;SDS011;5531;42.570;23.676;2023-08-12T10:48:18;2.33;;;2.13;;
10957;SDS011;5531;42.570;23.676;2023-08-12T10:50:48;2.20;;;2.00;;
10957;SDS011;5531;42.570;23.676;2023-08-12T10:53:20;3.28;;;2.13;;
10957;SDS011;5531;42.570;23.676;2023-08-12T10:55:49;2.10;;;1.90;;
10957;SDS011;5531;42.570;23.676;2023-08-12T10:58:25;2.45;;;2.00;;
10957;SDS011;5531;42.570;23.676;2023-08-12T11:00:57;2.38;;;2.10;;
10957;SDS011;5531;42.570;23.676;2023-08-12T11:03:26;2.00;;;1.80;;
10957;SDS011;5531;42.570;23.676;2023-08-12T11:05:54;3.65;;;2.05;;
10957;SDS011;5531;42.570;23.676;2023-08-12T11:08:24;2.38;;;2.17;;
10957;SDS011;5531;42.570;23.676;2023-08-12T11:10:54;4.13;;;1.90;;
10957;SDS011;5531;42.570;23.676;2023-08-12T11:13:23;2.05;;;1.85;;
10957;SDS011;5531;42.570;23.676;2023-08-12T11:16:07;3.00;;;2.00;;
10957;SDS011;5531;42.570;23.676;2023-08-12T11:18:37;2.25;;;1.83;;
10957;SDS011;5531;42.570;23.676;2023-08-12T11:21:06;2.72;;;2.00;;
10957;SDS011;5531;42.570;23.676;2023-08-12T11:23:35;2.10;;;1.90;;
10957;SDS011;5531;42.570;23.676;2023-08-12T11:26:05;2.83;;;1.90;;
10957;SDS011;5531;42.570;23.676;2023-08-12T11:28:37;2.58;;;1.83;;
10957;SDS011;5531;42.570;23.676;2023-08-12T11:31:08;5.00;;;2.00;;
10957;SDS011;5531;42.570;23.676;2023-08-12T11:33:37;2.00;;;1.80;;
10957;SDS011;5531;42.570;23.676;2023-08-12T11:36:06;2.28;;;2.08;;
10957;SDS011;5531;42.570;23.676;2023-08-12T11:38:34;3.45;;;2.03;;
10957;SDS011;5531;42.570;23.676;2023-08-12T11:41:03;2.25;;;1.85;;
10957;SDS011;5531;42.570;23.676;2023-08-12T11:43:32;2.20;;;2.00;;
10957;SDS011;5531;42.570;23.676;2023-08-12T11:46:00;2.05;;;1.85;;
10957;SDS011;5531;42.570;23.676;2023-08-12T11:48:32;2.05;;;1.83;;
10957;SDS011;5531;42.570;23.676;2023-08-12T11:51:00;2.20;;;2.00;;
10957;SDS011;5531;42.570;23.676;2023-08-12T11:53:29;3.25;;;1.80;;
10957;SDS011;5531;42.570;23.676;2023-08-12T11:55:58;2.45;;;1.92;;
10957;SDS011;5531;42.570;23.676;2023-08-12T11:58:27;2.05;;;1.88;;
10957;SDS011;5531;42.570;23.676;2023-08-12T12:01:03;2.08;;;1.88;;
10957;SDS011;5531;42.570;23.676;2023-08-12T12:03:34;4.20;;;1.90;;
10957;SDS011;5531;42.570;23.676;2023-08-12T12:06:03;2.30;;;2.10;;
10957;SDS011;5531;42.570;23.676;2023-08-12T12:08:32;2.15;;;1.92;;
10957;SDS011;5531;42.570;23.676;2023-08-12T12:11:03;2.20;;;2.00;;
10957;SDS011;5531;42.570;23.676;2023-08-12T12:13:32;3.40;;;1.92;;
10957;SDS011;5531;42.570;23.676;2023-08-12T12:16:00;2.08;;;1.88;;
10957;SDS011;5531;42.570;23.676;2023-08-12T12:18:29;3.90;;;2.10;;
10957;SDS011;5531;42.570;23.676;2023-08-12T12:21:00;2.35;;;2.10;;
10957;SDS011;5531;42.570;23.676;2023-08-12T12:23:28;1.90;;;1.80;;
10957;SDS011;5531;42.570;23.676;2023-08-12T12:25:58;2.45;;;2.20;;
10957;SDS011;5531;42.570;23.676;2023-08-12T12:28:27;2.70;;;2.40;;
10957;SDS011;5531;42.570;23.676;2023-08-12T12:30:55;4.05;;;2.00;;
10957;SDS011;5531;42.570;23.676;2023-08-12T12:33:24;2.20;;;2.00;;
10957;SDS011;5531;42.570;23.676;2023-08-12T12:35:52;2.60;;;2.10;;
10957;SDS011;5531;42.570;23.676;2023-08-12T12:38:24;3.58;;;1.90;;
10957;SDS011;5531;42.570;23.676;2023-08-12T12:40:52;2.15;;;1.90;;
10957;SDS011;5531;42.570;23.676;2023-08-12T12:43:21;2.00;;;1.80;;
10957;SDS011;5531;42.570;23.676;2023-08-12T12:45:49;2.10;;;1.90;;
10957;SDS011;5531;42.570;23.676;2023-08-12T12:48:18;3.95;;;2.20;;
10957;SDS011;5531;42.570;23.676;2023-08-12T12:50:46;2.58;;;2.13;;
10957;SDS011;5531;42.570;23.676;2023-08-12T12:53:15;2.60;;;2.40;;
10957;SDS011;5531;42.570;23.676;2023-08-12T12:55:46;2.30;;;2.10;;
10957;SDS011;5531;42.570;23.676;2023-08-12T12:58:15;2.28;;;2.08;;
10957;SDS011;5531;42.570;23.676;2023-08-12T13:00:44;2.38;;;2.15;;
10957;SDS011;5531;42.570;23.676;2023-08-12T13:03:13;2.20;;;2.00;;
10957;SDS011;5531;42.570;23.676;2023-08-12T13:05:41;2.42;;;2.05;;
10957;SDS011;5531;42.570;23.676;2023-08-12T13:08:10;2.30;;;1.90;;
10957;SDS011;5531;42.570;23.676;2023-08-12T13:10:38;2.15;;;1.95;;
10957;SDS011;5531;42.570;23.676;2023-08-12T13:13:09;2.25;;;2.05;;
10957;SDS011;5531;42.570;23.676;2023-08-12T13:15:38;2.25;;;2.03;;
10957;SDS011;5531;42.570;23.676;2023-08-12T13:18:06;3.38;;;2.08;;
10957;SDS011;5531;42.570;23.676;2023-08-12T13:20:35;2.47;;;2.28;;
10957;SDS011;5531;42.570;23.676;2023-08-12T13:23:04;2.60;;;2.20;;
10957;SDS011;5531;42.570;23.676;2023-08-12T13:25:33;2.35;;;2.15;;
10957;SDS011;5531;42.570;23.676;2023-08-12T13:28:02;3.90;;;2.00;;
10957;SDS011;5531;42.570;23.676;2023-08-12T13:30:33;2.45;;;2.17;;
10957;SDS011;5531;42.570;23.676;2023-08-12T13:33:02;2.30;;;2.10;;
10957;SDS011;5531;42.570;23.676;2023-08-12T13:35:31;2.40;;;2.20;;
10957;SDS011;5531;42.570;23.676;2023-08-12T13:37:59;2.30;;;2.10;;
10957;SDS011;5531;42.570;23.676;2023-08-12T13:40:28;2.45;;;2.25;;
10957;SDS011;5531;42.570;23.676;2023-08-12T13:42:56;2.22;;;2.10;;
10957;SDS011;5531;42.570;23.676;2023-08-12T13:45:25;4.07;;;2.22;;
10957;SDS011;5531;42.570;23.676;2023-08-12T13:47:57;2.53;;;2.10;;
10957;SDS011;5531;42.570;23.676;2023-08-12T13:50:25;2.40;;;2.20;;
10957;SDS011;5531;42.570;23.676;2023-08-12T13:52:54;2.28;;;2.08;;
10957;SDS011;5531;42.570;23.676;2023-08-12T13:55:23;2.42;;;2.22;;
10957;SDS011;5531;42.570;23.676;2023-08-12T13:57:52;2.50;;;2.30;;
10957;SDS011;5531;42.570;23.676;2023-08-12T14:00:20;2.50;;;2.30;;
10957;SDS011;5531;42.570;23.676;2023-08-12T14:02:49;4.32;;;2.40;;
10957;SDS011;5531;42.570;23.676;2023-08-12T14:05:21;2.83;;;2.28;;
10957;SDS011;5531;42.570;23.676;2023-08-12T14:07:49;2.60;;;2.40;;
10957;SDS011;5531;42.570;23.676;2023-08-12T14:10:18;2.40;;;2.20;;
10957;SDS011;5531;42.570;23.676;2023-08-12T14:12:46;5.10;;;2.50;;
10957;SDS011;5531;42.570;23.676;2023-08-12T14:15:16;3.53;;;2.28;;
10957;SDS011;5531;42.570;23.676;2023-08-12T14:17:44;3.78;;;2.60;;
10957;SDS011;5531;42.570;23.676;2023-08-12T14:20:13;2.70;;;2.50;;
10957;SDS011;5531;42.570;23.676;2023-08-12T14:22:46;5.50;;;2.40;;
10957;SDS011;5531;42.570;23.676;2023-08-12T14:25:14;2.80;;;2.22;;
10957;SDS011;5531;42.570;23.676;2023-08-12T14:27:43;2.50;;;2.30;;
10957;SDS011;5531;42.570;23.676;2023-08-12T14:30:12;2.60;;;2.40;;
10957;SDS011;5531;42.570;23.676;2023-08-12T14:32:40;3.03;;;2.60;;
10957;SDS011;5531;42.570;23.676;2023-08-12T14:35:09;2.92;;;2.65;;
10957;SDS011;5531;42.570;23.676;2023-08-12T14:37:38;3.58;;;2.35;;
10957;SDS011;5531;42.570;23.676;2023-08-12T14:40:09;2.50;;;2.30;;
10957;SDS011;5531;42.570;23.676;2023-08-12T14:42:38;2.60;;;2.22;;
10957;SDS011;5531;42.570;23.676;2023-08-12T14:45:07;3.17;;;2.20;;
10957;SDS011;5531;42.570;23.676;2023-08-12T14:47:36;2.42;;;2.22;;
10957;SDS011;5531;42.570;23.676;2023-08-12T14:50:05;2.42;;;2.22;;
10957;SDS011;5531;42.570;23.676;2023-08-12T14:52:34;3.38;;;2.20;;
10957;SDS011;5531;42.570;23.676;2023-08-12T14:55:02;3.58;;;2.38;;
10957;SDS011;5531;42.570;23.676;2023-08-12T14:57:34;2.63;;;2.10;;
10957;SDS011;5531;42.570;23.676;2023-08-12T15:00:03;2.13;;;1.92;;